In Rescue
 
Open Full Screen Window  High Contrast Mode
Wind Gusting 00 knots
07
July 25, 2021 8:16 AM EDT
Weather Information
Wind Direction
  270 °
Wind Speed
  07 kt (8 mph)
Wind Gust
  00 kt (0 mph)
Altimeter
29.83 in
Visibility
10 SM
Temperature
18° C
64° F
Dewpoint
14° C
57° F
Humidity
78%
1hr Rain Fall
00.00 in.
24hr Rain Fall
00.46 in.
Sky Condition
Clear
VFR

METAR KERY 251216Z AUTO 27007KT 10SM CLR 18/14 A2983 RMK AO2 T01760140

FAA Disclaimer: The data displayed is for advisory purposes only and is not to be used for flight planning or operations.